Flight Track Log - Related Links

Times and Time Zones

All times are in EDT time to prevent confusion due to time zone crossing. See the AWI3778 flight status page for this flight to view local times or setup timezone preferences in your user account.

Time Position Orientation Groundspeed Altitude Reporting Facility
EDT Latitude Longitude Course Direction KTS MPH feet Rate Location/Type
Tue 01:52:49 PM 44.3633 -73.1514 197° South 221 254 4,600  Level Boston Center
Tue 01:53:49 PM 44.2944 -73.1797 196° South 252 290 6,900 2,281 Climbing Boston Center
Tue 01:54:50 PM 44.2211 -73.2106 197° South 270 311 9,200 2,182 Climbing Boston Center
Tue 01:55:50 PM 44.1461 -73.2414 196° South 275 316 11,300 1,537 Climbing Boston Center
Tue 01:56:51 PM 44.0603 -73.2778 197° South 304 350 12,300 787 Climbing Boston Center
Tue 01:57:00 PM 43.8379 -73.3896 195° South  Level FlightAware Approximate
Tue 01:57:52 PM 43.9725 -73.3142 197° South 323 372 12,900  Level Boston Center
Tue 01:58:49 PM 43.8847 -73.3503 197° South 328 377 13,600 1,373 Climbing Boston Center
Tue 01:59:50 PM 43.8053 -73.3836 197° South 328 377 15,600 1,721 Climbing Boston Center
Tue 02:00:51 PM 43.7194 -73.4167 196° South 328 377 17,100 1,311 Climbing Boston Center
Tue 02:01:49 PM 43.6381 -73.4500 197° South 328 377 18,200 1,412 Climbing Boston Center
Tue 02:02:50 PM 43.5250 -73.4967 197° South 345 397 19,900 1,426 Climbing Boston Center
Tue 02:03:51 PM 43.4289 -73.5350 196° South 350 403 21,100 1,180 Climbing Boston Center
Tue 02:04:52 PM 43.3508 -73.6192 218° Southwest 350 403 22,300 1,169 Climbing Boston Center
Tue 02:05:49 PM 43.2750 -73.7092 221° Southwest 360 414 23,400 872 Climbing Boston Center
Tue 02:06:49 PM 43.1925 -73.8014 219° Southwest 366 421 24,000 298 Climbing Boston Center
Tue 02:07:50 PM 43.1144 -73.8933 221° Southwest 377 434 24,000  Level Boston Center
Tue 02:08:50 PM 43.0486 -73.9686 220° Southwest 377 434 24,000  Level Boston Center
Tue 02:09:51 PM 42.9725 -74.0575 221° Southwest 366 421 24,000  Level Boston Center
Tue 02:10:51 PM 42.8983 -74.1464 221° Southwest 361 415 24,000  Level Boston Center
Tue 02:11:49 PM 42.8219 -74.2319 219° Southwest 361 415 24,000  Level Boston Center
Tue 02:12:49 PM 42.7433 -74.3172 219° Southwest 361 415 24,000  Level Boston Center
Tue 02:13:50 PM 42.6667 -74.4111 222° Southwest 361 415 24,000  Level Boston Center
Tue 02:14:50 PM 42.5861 -74.4986 219° Southwest 361 415 24,000  Level Boston Center
Tue 02:15:50 PM 42.5072 -74.5919 221° Southwest 371 427 24,000 -99 Level Boston Center
Tue 02:16:51 PM 42.4261 -74.6819 219° Southwest 376 433 23,800 -694 Descending Boston Center
Tue 02:17:51 PM 42.3472 -74.7717 220° Southwest 376 433 22,600 -624 Descending Boston Center
Tue 02:19:44 PM 42.1958 -74.9389 219° Southwest 362 417 22,000 -241 Descending New York Center
Tue 02:20:45 PM 42.1097 -75.0144 213° Southwest 362 417 21,900 -1,068 Descending New York Center
Tue 02:21:42 PM 42.0261 -75.0844 212° Southwest 369 425 19,900 -1,475 Descending New York Center
Tue 02:22:43 PM 41.9422 -75.1569 213° Southwest 363 418 19,000 -541 Descending New York Center
Tue 02:23:44 PM 41.8606 -75.2239 211° Southwest 358 412 18,800 -857 Descending New York Center
Tue 02:24:42 PM 41.7728 -75.2931 210° Southwest 359 413 17,300 -1,613 Descending New York Center
Tue 02:25:43 PM 41.6953 -75.3547 211° Southwest 364 419 15,600 -1,623 Descending New York Center
Tue 02:26:44 PM 41.6158 -75.4211 212° Southwest 359 413 14,000 -1,750 Descending New York Center
Tue 02:27:43 PM 41.5256 -75.4925 211° Southwest 353 406 12,100 -950 Descending New York Center
Tue 02:28:44 PM 41.4417 -75.5586 211° Southwest 353 406 12,100 -50 Level New York Center
Tue 02:29:44 PM 41.3619 -75.6192 210° Southwest 348 400 12,000 -50 Descending New York Center
Tue 02:30:44 PM 41.2844 -75.6800 211° Southwest 355 409 12,000  Level New York Center
Tue 02:31:42 PM 41.1883 -75.6894 184° South 338 389 12,000  Level New York Center
Tue 02:32:43 PM 41.0906 -75.6881 179° South 353 406 12,000  Level New York Center
Tue 02:33:43 PM 40.9822 -75.6883 180° South 353 406 12,000  Level New York Center
Tue 02:34:43 PM 40.8822 -75.6867 179° South 358 412 12,000  Level New York Center
Tue 02:35:42 PM 40.7903 -75.6417 160° South 358 412 12,000  Level New York Center
Tue 02:36:43 PM 40.7092 -75.5867 153° Southeast 358 412 12,000 -390 Level New York Center
Tue 02:37:45 PM 40.6217 -75.5367 157° South 353 406 11,200 -908 Descending New York Center
Tue 02:38:42 PM 40.5383 -75.4872 156° South 317 365 10,200 -1,119 Descending New York Center
Tue 02:39:43 PM 40.4661 -75.4658 167° South 289 333 9,000 -689 Descending New York Center
Tue 02:40:44 PM 40.3972 -75.4694 182° South 270 311 8,800 -1,279 Descending New York Center
Tue 02:41:45 PM 40.3147 -75.4500 170° South 270 311 6,400 -2,136 Descending New York Center
Tue 02:42:42 PM 40.2492 -75.4186 160° South 264 304 4,600 -1,210 Descending New York Center
Tue 02:43:44 PM 40.1856 -75.3897 161° South 253 291 4,000 -639 Descending New York Center
Tue 02:44:44 PM 40.1467 -75.3708 160° South 199 229 3,300 -581 Descending New York Center
Tue 02:45:17 PM 40.1167 -75.3500 152° Southeast 170 196 3,100 -207 Descending Philadelphia TRACON
Tue 02:46:11 PM 40.0833 -75.3333 159° South 171 197 3,000 -53 Descending Philadelphia TRACON
Tue 02:47:11 PM 40.0333 -75.3167 166° South 165 190 3,000 -381 Level Philadelphia TRACON
Tue 02:48:17 PM 39.9833 -75.2833 153° Southeast 164 189 2,200 -750 Descending Philadelphia TRACON
Tue 02:49:11 PM 39.9500 -75.2667 159° South 143 165 1,500 -737 Descending Philadelphia TRACON
Tue 02:50:11 PM 39.9167 -75.2500 159° South 135 155 800 -700 Descending Philadelphia TRACON

Login

Don't have an account? Register now (free) for customized features, flight alerts, and more!